Time;durP1;ratioP1;P1;durP2;ratioP2;P2;SDS_P1;SDS_P2;PMS_P1;PMS_P2;Temp;Humidity;BMP_temperature;BMP_pressure;BME280_temperature;BME280_humidity;BME280_pressure;Samples;Min_cycle;Max_cycle;Signal;HPM_P1;HPM_P2
2023/11/03 00:00:32;;;;;;;12.07;4.60;;;;;;;8.12;100.00;96997.63;5069651;28;20036;-44
2023/11/03 00:02:59;;;;;;;12.30;4.97;;;;;;;8.13;100.00;97004.72;5069376;28;20451;-43
2023/11/03 00:05:26;;;;;;;15.93;5.80;;;;;;;8.13;100.00;96999.22;5069127;28;20383;-48
2023/11/03 00:07:54;;;;;;;18.25;4.55;;;;;;;8.14;100.00;96998.00;5069093;28;20460;-44
2023/11/03 00:10:21;;;;;;;12.93;4.93;;;;;;;8.15;100.00;97005.84;5069155;28;20761;-44
2023/11/03 00:12:48;;;;;;;13.55;4.68;;;;;;;8.16;100.00;97009.38;5069421;28;20128;-44
2023/11/03 00:15:17;;;;;;;16.83;4.53;;;;;;;8.17;100.00;97016.44;5069823;28;20024;-46
2023/11/03 00:17:43;;;;;;;9.93;3.97;;;;;;;8.16;100.00;97014.88;5068937;28;20086;-46
2023/11/03 00:20:14;;;;;;;11.63;5.00;;;;;;;8.17;100.00;97016.44;5069459;28;20542;-42
2023/11/03 00:22:42;;;;;;;9.57;4.05;;;;;;;8.17;100.00;97014.47;5069170;28;20045;-48
2023/11/03 00:25:13;;;;;;;10.65;3.30;;;;;;;8.17;100.00;97019.19;5068884;28;20094;-42
2023/11/03 00:27:42;;;;;;;11.17;3.90;;;;;;;8.16;100.00;97023.91;5067971;28;20058;-45
2023/11/03 00:30:10;;;;;;;9.63;3.55;;;;;;;8.15;100.00;97016.09;5068977;28;20426;-44
2023/11/03 00:32:37;;;;;;;12.88;5.32;;;;;;;8.16;100.00;97014.88;5069236;28;20037;-43
2023/11/03 00:35:08;;;;;;;15.57;3.97;;;;;;;8.17;100.00;97013.69;5060977;28;20106;-43
2023/11/03 00:37:38;;;;;;;9.38;3.78;;;;;;;8.17;100.00;97014.47;5068613;28;20402;-44
2023/11/03 00:40:08;;;;;;;10.68;3.20;;;;;;;8.19;100.00;97016.78;5059691;28;20402;-44
2023/11/03 00:42:35;;;;;;;8.30;3.95;;;;;;;8.17;100.00;97022.72;5068869;28;20040;-42
2023/11/03 00:45:02;;;;;;;12.43;3.78;;;;;;;8.18;100.00;97018.00;5069090;28;20041;-45
2023/11/03 00:47:29;;;;;;;11.50;3.88;;;;;;;8.20;100.00;97023.88;5069115;28;20482;-44
2023/11/03 00:49:56;;;;;;;10.13;4.07;;;;;;;8.21;100.00;97025.41;5068210;28;20409;-45
2023/11/03 00:52:25;;;;;;;10.13;3.58;;;;;;;8.24;100.00;97030.09;5066896;28;20048;-45
2023/11/03 00:54:53;;;;;;;14.88;3.97;;;;;;;8.24;100.00;97025.34;5068349;28;20080;-43
2023/11/03 00:57:20;;;;;;;11.55;3.70;;;;;;;8.24;100.00;97024.56;5055294;28;20032;-42
2023/11/03 00:59:49;;;;;;;14.20;3.53;;;;;;;8.26;100.00;97031.22;5068281;28;20064;-46
2023/11/03 01:02:17;;;;;;;10.27;5.05;;;;;;;8.26;100.00;97033.97;5068150;28;20094;-43
2023/11/03 01:04:45;;;;;;;14.50;4.05;;;;;;;8.27;100.00;97029.28;5068543;28;20085;-52
2023/11/03 01:07:12;;;;;;;13.93;3.90;;;;;;;8.28;100.00;97030.84;5068290;28;20045;-49
2023/11/03 01:09:41;;;;;;;15.15;5.25;;;;;;;8.29;100.00;97035.16;5068359;28;20135;-50
2023/11/03 01:12:08;;;;;;;8.98;3.65;;;;;;;8.29;100.00;97040.66;5062973;28;20384;-43
2023/11/03 01:14:35;;;;;;;9.48;3.60;;;;;;;8.30;100.00;97045.75;5061241;28;20140;-43
2023/11/03 01:17:02;;;;;;;10.70;4.35;;;;;;;8.29;100.00;97041.44;5066972;28;20045;-46
2023/11/03 01:19:30;;;;;;;10.02;4.03;;;;;;;8.31;100.00;97046.56;5068389;28;20102;-47
2023/11/03 01:21:59;;;;;;;8.88;3.22;;;;;;;8.31;100.00;97035.53;5053709;28;20051;-48
2023/11/03 01:24:27;;;;;;;14.93;4.07;;;;;;;8.31;100.00;97044.53;5067835;28;20110;-47
2023/11/03 01:26:53;;;;;;;13.95;4.63;;;;;;;8.30;100.00;97036.72;5068148;28;20131;-45
2023/11/03 01:29:20;;;;;;;15.93;4.65;;;;;;;8.31;100.00;97043.78;5067243;28;20055;-45
2023/11/03 01:31:47;;;;;;;13.27;3.97;;;;;;;8.32;100.00;97051.63;5067739;28;20437;-45
2023/11/03 01:34:13;;;;;;;9.45;4.63;;;;;;;8.33;100.00;97046.91;5059818;28;20045;-49
2023/11/03 01:36:40;;;;;;;14.98;5.63;;;;;;;8.32;100.00;97048.09;5067271;28;20040;-47
2023/11/03 01:39:08;;;;;;;14.02;5.93;;;;;;;8.32;100.00;97059.91;5058187;28;20467;-46
2023/11/03 01:41:36;;;;;;;18.98;6.40;;;;;;;8.33;100.00;97063.44;5066921;28;20110;-46
2023/11/03 01:44:09;;;;;;;25.52;6.07;;;;;;;8.32;100.00;97067.38;5067536;28;20076;-50
2023/11/03 01:46:38;;;;;;;13.18;5.45;;;;;;;8.31;100.00;97054.81;5067775;28;20124;-47
2023/11/03 01:49:06;;;;;;;16.73;6.18;;;;;;;8.32;100.00;97065.41;5067554;28;20049;-49
2023/11/03 01:51:34;;;;;;;18.15;7.20;;;;;;;8.29;100.00;97068.22;5066534;28;20110;-45
2023/11/03 01:54:05;;;;;;;14.07;7.07;;;;;;;8.27;100.00;97070.63;5067303;28;20040;-47
2023/11/03 01:56:36;;;;;;;16.95;6.95;;;;;;;8.26;100.00;97077.31;5067908;28;20090;-44
2023/11/03 01:59:05;;;;;;;12.98;6.68;;;;;;;8.27;100.00;97087.16;5068270;28;20462;-46
2023/11/03 02:01:34;;;;;;;15.20;7.13;;;;;;;8.27;100.00;97084.41;5066990;28;20049;-45
2023/11/03 02:04:01;;;;;;;19.63;7.90;;;;;;;8.26;100.00;97080.81;5067257;28;20074;-49
2023/11/03 02:06:28;;;;;;;16.90;7.68;;;;;;;8.25;100.00;97087.56;5067611;28;20045;-42
2023/11/03 02:08:55;;;;;;;17.52;8.57;;;;;;;8.25;100.00;97090.31;5066532;28;20510;-49
2023/11/03 02:11:26;;;;;;;18.65;8.93;;;;;;;8.25;100.00;97084.00;5067145;28;20060;-46
2023/11/03 02:13:53;;;;;;;23.25;9.95;;;;;;;8.24;100.00;97097.00;5053635;28;20044;-43
2023/11/03 02:16:20;;;;;;;21.70;10.30;;;;;;;8.23;100.00;97091.91;5067112;28;20402;-45
2023/11/03 02:18:48;;;;;;;17.73;9.10;;;;;;;8.24;100.00;97096.22;5066278;28;20111;-43
2023/11/03 02:21:15;;;;;;;17.98;9.88;;;;;;;8.22;100.00;97098.63;5067265;28;20068;-47
2023/11/03 02:23:42;;;;;;;24.77;10.18;;;;;;;8.22;100.00;97091.13;5067302;28;20059;-42
2023/11/03 02:26:08;;;;;;;27.02;11.05;;;;;;;8.22;100.00;97104.13;5067462;28;20402;-42
2023/11/03 02:28:35;;;;;;;26.13;10.77;;;;;;;8.24;100.00;97107.25;5067430;28;20082;-45
2023/11/03 02:31:02;;;;;;;22.40;13.05;;;;;;;8.24;100.00;97121.81;5066544;28;20064;-45
2023/11/03 02:33:29;;;;;;;29.48;13.23;;;;;;;8.25;100.00;97133.59;5063763;28;20033;-47
2023/11/03 02:35:56;;;;;;;30.30;15.07;;;;;;;8.25;100.00;97125.34;5062200;28;20080;-48
2023/11/03 02:38:23;;;;;;;33.22;14.40;;;;;;;8.25;100.00;97123.38;5063062;28;20048;-47
2023/11/03 02:40:54;;;;;;;28.88;13.65;;;;;;;8.23;100.00;97125.78;5061385;28;20048;-43
2023/11/03 02:43:22;;;;;;;28.58;14.18;;;;;;;8.21;100.00;97130.91;5066217;28;20044;-43
2023/11/03 02:45:49;;;;;;;27.60;12.80;;;;;;;8.21;100.00;97127.34;5065909;28;20041;-47
2023/11/03 02:48:17;;;;;;;41.22;16.02;;;;;;;8.17;100.00;97115.63;5069654;28;20040;-46
2023/11/03 02:50:44;;;;;;;27.52;11.70;;;;;;;8.14;100.00;97117.25;5070649;28;20041;-48
2023/11/03 02:53:11;;;;;;;29.00;14.13;;;;;;;8.09;100.00;97127.94;5070195;28;20049;-46
2023/11/03 02:55:38;;;;;;;38.20;13.90;;;;;;;8.06;100.00;97126.03;5059648;28;20068;-45
2023/11/03 02:58:08;;;;;;;34.30;13.07;;;;;;;8.04;100.00;97125.66;5070243;28;20040;-44
2023/11/03 03:00:36;;;;;;;27.08;12.95;;;;;;;7.99;100.00;97129.69;5138470;22;20785;-41
2023/11/03 03:03:07;;;;;;;33.50;13.15;;;;;;;7.96;100.00;97136.00;5068635;28;20045;-44
2023/11/03 03:05:34;;;;;;;35.42;13.02;;;;;;;7.92;100.00;97127.78;5070479;28;20032;-41
2023/11/03 03:08:03;;;;;;;31.52;11.85;;;;;;;7.91;100.00;97140.03;5070295;28;21887;-42
2023/11/03 03:10:31;;;;;;;27.95;12.32;;;;;;;7.87;100.00;97136.53;5064303;28;20442;-45
2023/11/03 03:12:58;;;;;;;23.90;10.48;;;;;;;7.87;100.00;97142.03;5058056;28;20041;-44
2023/11/03 03:15:26;;;;;;;25.30;10.60;;;;;;;7.84;100.00;97131.06;5069568;28;20094;-47
2023/11/03 03:17:52;;;;;;;22.27;9.98;;;;;;;7.83;100.00;97151.53;5057004;28;20054;-42
2023/11/03 03:20:20;;;;;;;28.88;9.15;;;;;;;7.79;100.00;97151.56;5067195;28;20036;-46
2023/11/03 03:22:47;;;;;;;26.00;10.55;;;;;;;7.75;100.00;97153.63;5070492;28;20047;-42
2023/11/03 03:25:14;;;;;;;19.23;10.20;;;;;;;7.73;100.00;97164.25;5070320;28;20048;-42
2023/11/03 03:27:41;;;;;;;26.92;11.13;;;;;;;7.72;100.00;97162.69;5068682;28;20047;-42
2023/11/03 03:30:09;;;;;;;17.67;10.48;;;;;;;7.68;100.00;97161.16;5069973;28;20494;-42
2023/11/03 03:32:36;;;;;;;17.80;8.50;;;;;;;7.66;100.00;97164.34;5069326;28;20551;-45
2023/11/03 03:35:03;;;;;;;16.30;8.30;;;;;;;7.61;100.00;97166.75;5070587;28;20503;-41
2023/11/03 03:37:31;;;;;;;15.10;7.38;;;;;;;7.57;100.00;97177.81;5069229;28;20033;-44
2023/11/03 03:39:58;;;;;;;17.15;7.88;;;;;;;7.52;100.00;97181.00;5068699;28;20048;-41
2023/11/03 03:42:25;;;;;;;17.85;7.40;;;;;;;7.49;100.00;97187.38;5069797;28;20138;-40
2023/11/03 03:44:52;;;;;;;16.33;6.60;;;;;;;7.45;100.00;97192.13;5069615;28;20043;-41
2023/11/03 03:47:19;;;;;;;16.60;7.53;;;;;;;7.41;100.00;97187.84;5069199;28;20498;-41
2023/11/03 03:49:46;;;;;;;16.75;7.03;;;;;;;7.37;100.00;97196.13;5068996;28;20052;-41
2023/11/03 03:52:13;;;;;;;14.15;7.15;;;;;;;7.32;100.00;97188.34;5068925;28;20144;-41
2023/11/03 03:54:39;;;;;;;17.08;7.47;;;;;;;7.25;100.00;97194.69;5070103;28;20040;-41
2023/11/03 03:57:06;;;;;;;13.48;6.65;;;;;;;7.19;100.00;97195.56;5069752;28;20052;-40
2023/11/03 03:59:34;;;;;;;16.08;6.55;;;;;;;7.13;100.00;97192.47;5068876;28;20057;-41
2023/11/03 04:02:00;;;;;;;15.57;6.05;;;;;;;7.09;100.00;97194.50;5068520;28;20044;-41
2023/11/03 04:04:27;;;;;;;15.27;7.13;;;;;;;7.05;100.00;97199.22;5041916;28;20115;-44
2023/11/03 04:06:55;;;;;;;19.50;6.47;;;;;;;7.00;100.00;97205.16;5059593;28;20044;-46
2023/11/03 04:09:23;;;;;;;16.58;6.43;;;;;;;6.96;100.00;97214.66;5058730;28;20041;-41
2023/11/03 04:11:50;;;;;;;11.93;6.07;;;;;;;6.93;100.00;97220.97;5057788;28;20637;-41
2023/11/03 04:14:17;;;;;;;13.10;5.32;;;;;;;6.87;100.00;97212.38;5058884;28;20107;-40
2023/11/03 04:16:44;;;;;;;14.23;5.60;;;;;;;6.85;100.00;97223.00;5065809;28;20041;-43
2023/11/03 04:19:10;;;;;;;16.88;5.65;;;;;;;6.82;100.00;97220.25;5068847;28;20048;-41
2023/11/03 04:21:37;;;;;;;15.85;5.95;;;;;;;6.79;100.00;97216.34;5059663;28;20041;-42
2023/11/03 04:24:04;;;;;;;17.65;6.95;;;;;;;6.75;100.00;97232.13;5068611;28;20116;-41
2023/11/03 04:26:31;;;;;;;12.48;6.43;;;;;;;6.70;100.00;97233.31;5069386;28;20116;-45
2023/11/03 04:28:58;;;;;;;11.73;5.78;;;;;;;6.70;100.00;97241.56;5068693;28;20059;-40
2023/11/03 04:31:25;;;;;;;12.85;5.38;;;;;;;6.65;100.00;97244.75;5069056;28;20123;-41
2023/11/03 04:33:52;;;;;;;14.05;4.55;;;;;;;6.64;100.00;97253.41;5069087;28;20044;-41
2023/11/03 04:36:19;;;;;;;15.27;6.50;;;;;;;6.60;100.00;97261.66;5069255;28;20139;-41
2023/11/03 04:38:47;;;;;;;12.18;5.55;;;;;;;6.58;100.00;97255.78;5068985;28;20052;-41
2023/11/03 04:41:14;;;;;;;16.30;5.47;;;;;;;6.54;100.00;97255.03;5068669;28;20118;-42
2023/11/03 04:43:41;;;;;;;11.75;4.88;;;;;;;6.51;100.00;97261.31;5068801;28;20479;-42
2023/11/03 04:46:09;;;;;;;12.82;4.63;;;;;;;6.48;100.00;97267.66;5055606;28;20129;-41
2023/11/03 04:48:37;;;;;;;9.82;4.60;;;;;;;6.45;100.00;97257.44;5068119;28;20494;-43
2023/11/03 04:51:04;;;;;;;7.05;4.25;;;;;;;6.42;100.00;97266.50;5069060;28;20444;-43
2023/11/03 04:53:31;;;;;;;10.15;4.18;;;;;;;6.38;100.00;97265.72;5068696;28;20043;-45
2023/11/03 04:55:58;;;;;;;8.25;4.45;;;;;;;6.37;100.00;97277.13;5068379;28;20045;-46
2023/11/03 04:58:25;;;;;;;7.85;3.25;;;;;;;6.33;100.00;97277.13;5062982;28;20493;-44
2023/11/03 05:00:55;;;;;;;8.60;3.40;;;;;;;6.32;100.00;97274.81;5067200;28;20118;-43
2023/11/03 05:03:22;;;;;;;8.88;3.85;;;;;;;6.31;100.00;97281.47;5063839;28;20041;-43
2023/11/03 05:05:49;;;;;;;10.85;4.13;;;;;;;6.28;100.00;97279.53;5067928;28;20659;-44
2023/11/03 05:08:16;;;;;;;7.47;3.45;;;;;;;6.27;100.00;97286.22;5067523;28;20037;-46
2023/11/03 05:10:43;;;;;;;6.65;2.97;;;;;;;6.26;100.00;97282.69;5067321;28;20110;-46
2023/11/03 05:13:10;;;;;;;9.23;3.28;;;;;;;6.25;100.00;97289.34;5067382;28;20055;-43
2023/11/03 05:15:37;;;;;;;8.98;2.67;;;;;;;6.22;100.00;97289.38;5050039;28;20036;-44
2023/11/03 05:18:04;;;;;;;11.10;2.90;;;;;;;6.16;100.00;97283.53;5067893;28;20087;-44
2023/11/03 05:20:30;;;;;;;7.63;3.00;;;;;;;6.13;100.00;97284.31;5067668;28;20033;-45
2023/11/03 05:22:58;;;;;;;5.30;2.95;;;;;;;6.14;100.00;97283.16;5066649;28;20060;-46
2023/11/03 05:25:25;;;;;;;6.35;3.03;;;;;;;6.10;100.00;97293.34;5068350;28;20045;-41
2023/11/03 05:27:52;;;;;;;8.82;2.70;;;;;;;6.06;100.00;97281.63;5068033;28;20452;-43
2023/11/03 05:30:21;;;;;;;7.00;3.53;;;;;;;6.05;100.00;97291.81;5066493;28;20410;-43
2023/11/03 05:32:49;;;;;;;9.75;2.92;;;;;;;6.04;100.00;97294.94;5058226;28;20060;-43
2023/11/03 05:35:16;;;;;;;8.18;3.10;;;;;;;6.01;100.00;97298.50;5067093;28;20494;-41
2023/11/03 05:37:44;;;;;;;6.95;2.83;;;;;;;5.99;100.00;97295.34;5066378;28;20121;-42
2023/11/03 05:40:12;;;;;;;8.07;3.30;;;;;;;5.96;100.00;97296.94;5066792;28;20048;-41
2023/11/03 05:42:39;;;;;;;9.02;3.25;;;;;;;5.96;100.00;97302.44;5066106;28;20091;-46
2023/11/03 05:45:06;;;;;;;8.93;3.15;;;;;;;5.96;100.00;97296.94;5067420;28;20044;-41
2023/11/03 05:47:33;;;;;;;8.80;2.60;;;;;;;5.92;100.00;97293.44;5064343;28;20036;-41
2023/11/03 05:50:00;;;;;;;5.07;2.53;;;;;;;5.89;100.00;97307.94;5067822;28;20041;-44
2023/11/03 05:52:27;;;;;;;5.85;3.40;;;;;;;5.90;100.00;97317.75;5065805;28;20123;-41
2023/11/03 05:54:53;;;;;;;9.45;2.30;;;;;;;5.87;100.00;97326.78;5066476;28;20083;-41
2023/11/03 05:57:20;;;;;;;3.90;1.90;;;;;;;5.86;100.00;97327.16;5067030;28;20135;-46
2023/11/03 05:59:47;;;;;;;8.02;2.78;;;;;;;5.84;100.00;97321.28;5067578;28;20523;-41
2023/11/03 06:02:15;;;;;;;12.45;2.28;;;;;;;5.83;100.00;97325.97;5066757;28;20493;-41
2023/11/03 06:04:41;;;;;;;8.80;2.45;;;;;;;5.83;100.00;97330.69;5066899;28;20583;-41
2023/11/03 06:07:09;;;;;;;6.93;3.00;;;;;;;5.78;100.00;97329.13;5067368;28;20033;-41
2023/11/03 06:09:37;;;;;;;8.57;2.42;;;;;;;5.76;100.00;97333.44;5067366;28;20505;-40
2023/11/03 06:12:06;;;;;;;9.30;3.22;;;;;;;5.76;100.00;97336.19;5066517;28;20126;-42
2023/11/03 06:14:33;;;;;;;3.65;2.33;;;;;;;5.74;100.00;97341.31;5067178;28;20079;-42
2023/11/03 06:17:00;;;;;;;6.13;2.65;;;;;;;5.70;100.00;97344.03;5065033;28;20129;-42
2023/11/03 06:19:26;;;;;;;7.35;2.42;;;;;;;5.69;100.00;97358.19;5067504;28;20045;-42
2023/11/03 06:21:53;;;;;;;8.68;2.25;;;;;;;5.67;100.00;97366.00;5066078;28;20055;-40
2023/11/03 06:24:20;;;;;;;7.10;2.67;;;;;;;5.65;100.00;97358.16;5066472;28;20044;-42
2023/11/03 06:26:47;;;;;;;4.65;1.77;;;;;;;5.68;100.00;97367.56;5066582;28;20043;-43
2023/11/03 06:29:13;;;;;;;12.18;2.47;;;;;;;5.67;100.00;97371.50;5067215;28;20124;-42
2023/11/03 06:31:40;;;;;;;6.63;1.98;;;;;;;5.67;100.00;97376.97;5064558;28;20076;-40
2023/11/03 06:34:07;;;;;;;10.45;2.35;;;;;;;5.65;100.00;97385.63;5060125;28;20056;-41
2023/11/03 06:36:33;;;;;;;7.05;2.17;;;;;;;5.64;100.00;97388.75;5066814;28;20028;-43
2023/11/03 06:39:15;;;;;;;8.95;2.67;;;;;;;5.63;100.00;97392.69;5066612;28;20071;-41
2023/11/03 06:41:43;;;;;;;5.60;2.30;;;;;;;5.61;100.00;97384.84;5066524;28;20375;-42
2023/11/03 06:44:11;;;;;;;9.70;2.33;;;;;;;5.60;100.00;97393.47;5064939;28;20136;-43
2023/11/03 06:46:39;;;;;;;8.48;3.20;;;;;;;5.56;100.00;97392.69;5066765;28;20436;-43
2023/11/03 06:49:08;;;;;;;8.80;2.92;;;;;;;5.54;100.00;97395.81;5066051;28;20371;-44
2023/11/03 06:51:36;;;;;;;3.83;1.88;;;;;;;5.53;100.00;97399.75;5056912;28;20049;-40
2023/11/03 06:54:07;;;;;;;9.90;3.05;;;;;;;5.53;100.00;97403.25;5060822;28;20068;-41
2023/11/03 06:56:34;;;;;;;7.03;2.42;;;;;;;5.49;100.00;97409.94;5058057;28;20513;-40
2023/11/03 06:59:00;;;;;;;8.65;2.63;;;;;;;5.45;100.00;97409.91;5061667;28;20048;-40
2023/11/03 07:01:27;;;;;;;10.40;2.80;;;;;;;5.44;100.00;97413.84;5066485;28;20078;-42
2023/11/03 07:03:54;;;;;;;5.25;2.53;;;;;;;5.42;100.00;97418.16;5065578;28;20482;-40
2023/11/03 07:06:21;;;;;;;6.70;2.58;;;;;;;5.40;100.00;97418.53;5066175;28;20071;-41
2023/11/03 07:08:48;;;;;;;14.15;3.25;;;;;;;5.36;100.00;97423.25;5059894;28;20036;-41
2023/11/03 07:11:17;;;;;;;9.55;3.00;;;;;;;5.31;100.00;97431.88;5065901;28;20409;-43
2023/11/03 07:13:44;;;;;;;5.50;2.15;;;;;;;5.27;100.00;97433.81;5066883;28;20082;-42
2023/11/03 07:16:12;;;;;;;8.65;4.75;;;;;;;5.26;100.00;97437.75;5066107;28;20135;-41
2023/11/03 07:18:43;;;;;;;4.05;2.92;;;;;;;5.26;100.00;97445.97;5066179;28;20117;-45
2023/11/03 07:21:14;;;;;;;10.32;2.90;;;;;;;5.24;100.00;97453.78;5066545;28;20032;-41
2023/11/03 07:23:41;;;;;;;13.50;3.05;;;;;;;5.25;100.00;97455.38;5066172;28;20033;-44
2023/11/03 07:26:08;;;;;;;10.70;2.50;;;;;;;5.26;100.00;97456.94;5065914;28;20125;-41
2023/11/03 07:28:38;;;;;;;10.93;2.55;;;;;;;5.26;100.00;97470.66;5066870;28;20651;-42
2023/11/03 07:31:10;;;;;;;7.68;2.72;;;;;;;5.30;100.00;97459.69;5064439;28;20040;-41
2023/11/03 07:33:41;;;;;;;;;;;;;;;5.33;100.00;97473.41;5060735;28;20060;-41
2023/11/03 07:36:10;;;;;;;5.15;3.05;;;;;;;5.39;100.00;97466.38;5066187;28;19920;-43
2023/11/03 07:38:37;;;;;;;6.50;2.70;;;;;;;5.42;100.00;97471.09;5063818;28;20502;-40
2023/11/03 07:41:07;;;;;;;5.78;3.15;;;;;;;5.48;100.00;97474.22;5069549;28;20111;-41
2023/11/03 07:43:38;;;;;;;6.80;2.40;;;;;;;5.49;100.00;97471.06;5070065;28;20044;-42
2023/11/03 07:46:05;;;;;;;7.07;2.88;;;;;;;5.52;100.00;97470.31;5070148;28;20036;-43
2023/11/03 07:48:32;;;;;;;7.68;2.40;;;;;;;5.53;100.00;97482.81;5070058;28;20090;-41
2023/11/03 07:50:59;;;;;;;8.40;2.33;;;;;;;5.54;100.00;97484.41;5069288;28;20052;-40
2023/11/03 07:53:26;;;;;;;6.60;2.30;;;;;;;5.57;100.00;97487.53;5070384;28;20028;-41
2023/11/03 07:55:54;;;;;;;7.35;2.15;;;;;;;5.59;100.00;97491.44;5056490;28;20505;-41
2023/11/03 07:58:21;;;;;;;9.93;1.92;;;;;;;5.61;100.00;97491.06;5069945;28;20127;-41
2023/11/03 08:00:49;;;;;;;4.60;2.55;;;;;;;5.62;100.00;97487.13;5056212;28;20456;-44
2023/11/03 08:03:17;;;;;;;3.63;1.88;;;;;;;5.60;100.00;97492.25;5067865;28;20125;-40
2023/11/03 08:05:45;;;;;;;6.63;2.22;;;;;;;5.62;100.00;97500.84;5070025;28;20047;-43
2023/11/03 08:08:14;;;;;;;4.88;2.10;;;;;;;5.68;100.00;97502.84;5069768;28;20070;-40
2023/11/03 08:10:41;;;;;;;7.95;2.53;;;;;;;5.70;100.00;97505.97;5069743;28;20028;-40
2023/11/03 08:13:08;;;;;;;11.25;2.70;;;;;;;5.73;100.00;97507.16;5069444;28;20058;-40
2023/11/03 08:15:35;;;;;;;6.88;1.98;;;;;;;5.76;100.00;97511.84;5069135;28;20127;-41
2023/11/03 08:18:05;;;;;;;13.38;2.40;;;;;;;5.78;100.00;97520.47;5066456;28;20075;-41
2023/11/03 08:20:33;;;;;;;4.95;1.95;;;;;;;5.79;100.00;97528.34;5067709;28;20131;-40
2023/11/03 08:23:00;;;;;;;4.57;1.90;;;;;;;5.79;100.00;97522.84;5067885;28;20033;-41
2023/11/03 08:25:28;;;;;;;3.70;2.03;;;;;;;5.83;100.00;97523.63;5066637;28;20047;-42
2023/11/03 08:27:54;;;;;;;8.23;2.00;;;;;;;5.86;100.00;97511.88;5068811;28;20406;-41
2023/11/03 08:30:22;;;;;;;7.72;2.50;;;;;;;5.88;100.00;97522.47;5068252;28;20048;-40
2023/11/03 08:32:50;;;;;;;7.90;2.10;;;;;;;5.91;100.00;97524.44;5066549;28;20651;-40
2023/11/03 08:35:21;;;;;;;10.05;3.05;;;;;;;5.95;100.00;97525.22;5068157;28;20041;-40
2023/11/03 08:37:53;;;;;;;12.60;3.20;;;;;;;5.95;100.00;97528.75;5067924;28;20033;-40
2023/11/03 08:40:21;;;;;;;7.63;2.40;;;;;;;5.98;100.00;97535.44;5068755;28;20098;-40
2023/11/03 08:42:49;;;;;;;7.00;2.55;;;;;;;6.02;100.00;97547.19;5068312;28;20321;-40
2023/11/03 08:45:17;;;;;;;7.57;3.20;;;;;;;6.04;100.00;97531.88;5067735;28;20068;-39
2023/11/03 08:47:44;;;;;;;15.65;8.88;;;;;;;6.05;100.00;97535.41;5068945;28;20032;-40
2023/11/03 08:50:12;;;;;;;6.88;2.60;;;;;;;6.11;100.00;97539.34;5060605;28;20044;-45
2023/11/03 08:52:40;;;;;;;6.35;2.08;;;;;;;6.10;100.00;97538.56;5061851;28;20041;-43
2023/11/03 08:55:07;;;;;;;7.68;1.85;;;;;;;6.14;100.00;97546.81;5066145;28;20665;-41
2023/11/03 08:57:35;;;;;;;7.50;3.70;;;;;;;6.19;100.00;97551.91;5066879;28;20028;-42
2023/11/03 09:00:11;;;;;;;7.45;2.08;;;;;;;6.22;100.00;97539.34;5067370;28;20033;-41
2023/11/03 09:02:40;;;;;;;4.40;1.90;;;;;;;6.26;100.00;97540.88;5063108;28;20790;-43
2023/11/03 09:05:09;;;;;;;5.40;1.45;;;;;;;6.30;100.00;97544.41;5053304;28;20040;-45
2023/11/03 09:07:36;;;;;;;8.05;2.08;;;;;;;6.37;100.00;97541.66;5066751;28;20044;-45
2023/11/03 09:10:06;;;;;;;8.25;2.38;;;;;;;6.45;100.00;97554.22;5066502;28;20040;-44
2023/11/03 09:12:34;;;;;;;6.00;1.50;;;;;;;6.51;100.00;97554.59;5066151;28;20076;-42
2023/11/03 09:15:03;;;;;;;8.70;2.13;;;;;;;6.53;100.00;97561.25;5066767;28;20573;-41
2023/11/03 09:17:31;;;;;;;4.53;1.73;;;;;;;6.58;100.00;97569.09;5061818;28;20029;-41
2023/11/03 09:19:58;;;;;;;11.65;3.25;;;;;;;6.62;100.00;97564.38;5065520;28;20048;-41
2023/11/03 09:22:30;;;;;;;5.20;1.85;;;;;;;6.66;100.00;97567.91;5066577;28;20048;-44
2023/11/03 09:25:05;;;;;;;4.53;1.88;;;;;;;6.65;100.00;97563.59;5060314;28;20040;-42
2023/11/03 09:27:33;;;;;;;4.70;2.05;;;;;;;6.67;100.00;97561.22;5041378;28;20123;-42
2023/11/03 09:30:04;;;;;;;8.25;2.17;;;;;;;6.69;100.00;97566.34;5066246;28;20044;-42
2023/11/03 09:32:31;;;;;;;8.65;2.42;;;;;;;6.74;100.00;97571.41;5062490;28;20047;-41
2023/11/03 09:34:58;;;;;;;6.05;2.08;;;;;;;6.78;100.00;97576.91;5066409;28;20051;-45
2023/11/03 09:37:25;;;;;;;8.98;2.50;;;;;;;6.79;100.00;97584.75;5066306;28;20127;-40
2023/11/03 09:39:52;;;;;;;9.85;2.30;;;;;;;6.80;100.00;97582.81;5066320;28;20135;-40
2023/11/03 09:42:19;;;;;;;5.88;2.05;;;;;;;6.87;100.00;97580.03;5065926;28;20136;-40
2023/11/03 09:44:46;;;;;;;17.80;2.30;;;;;;;6.92;100.00;97580.41;5054819;28;20032;-45
2023/11/03 09:47:15;;;;;;;6.55;2.10;;;;;;;6.95;100.00;97581.56;5065949;28;20457;-41
2023/11/03 09:49:48;;;;;;;7.50;2.17;;;;;;;6.96;100.00;97572.94;5062122;28;20040;-43
2023/11/03 09:52:19;;;;;;;7.10;2.00;;;;;;;6.99;100.00;97565.84;5066270;28;20044;-42
2023/11/03 09:54:46;;;;;;;7.13;2.05;;;;;;;7.00;100.00;97570.16;5066897;28;20036;-40
2023/11/03 09:57:14;;;;;;;3.30;1.90;;;;;;;7.00;100.00;97572.91;5064710;28;20037;-40
2023/11/03 09:59:41;;;;;;;10.27;2.42;;;;;;;7.05;100.00;97575.25;5056789;28;20040;-43
2023/11/03 10:02:11;;;;;;;6.15;2.03;;;;;;;7.07;100.00;97572.91;5061108;28;20457;-41
2023/11/03 10:04:39;;;;;;;4.70;1.60;;;;;;;7.11;100.00;97579.16;5066851;28;20090;-41
2023/11/03 10:07:10;;;;;;;4.35;1.65;;;;;;;7.15;100.00;97579.91;5064951;28;20055;-42
2023/11/03 10:09:42;;;;;;;4.95;1.75;;;;;;;7.22;100.00;97579.91;5061152;28;20024;-40
2023/11/03 10:12:17;;;;;;;6.32;1.90;;;;;;;7.30;100.00;97593.22;5048117;28;20560;-42
2023/11/03 10:14:46;;;;;;;9.90;2.97;;;;;;;7.39;100.00;97590.03;5059204;28;20092;-41
2023/11/03 10:17:17;;;;;;;10.18;2.20;;;;;;;7.44;100.00;97595.09;5066428;28;20056;-41
2023/11/03 10:19:45;;;;;;;7.68;1.92;;;;;;;7.48;100.00;97589.59;5065440;28;20032;-40
2023/11/03 10:22:12;;;;;;;5.75;1.92;;;;;;;7.47;100.00;97590.78;5065700;28;20044;-40
2023/11/03 10:24:39;;;;;;;6.70;1.73;;;;;;;7.48;100.00;97587.63;5064817;28;20045;-41
2023/11/03 10:27:07;;;;;;;14.02;3.05;;;;;;;7.49;100.00;97577.41;5065747;28;20056;-41
2023/11/03 10:29:34;;;;;;;3.47;1.75;;;;;;;7.49;100.00;97589.22;5063022;28;20036;-42
2023/11/03 10:32:01;;;;;;;16.63;2.85;;;;;;;7.51;100.00;97583.28;5055131;28;20118;-40
2023/11/03 10:34:29;;;;;;;5.38;1.40;;;;;;;7.54;100.00;97586.03;5064750;28;20551;-41
2023/11/03 10:36:57;;;;;;;7.93;1.23;;;;;;;7.55;100.00;97576.56;5046585;28;20048;-42
2023/11/03 10:39:25;;;;;;;6.47;1.67;;;;;;;7.56;100.00;97578.16;5064378;28;20056;-41
2023/11/03 10:41:53;;;;;;;9.77;2.85;;;;;;;7.58;100.00;97583.25;5064995;28;20045;-41
2023/11/03 10:44:23;;;;;;;6.10;2.28;;;;;;;7.61;100.00;97582.44;5065572;28;20051;-40
2023/11/03 10:46:58;;;;;;;10.60;1.40;;;;;;;7.64;100.00;97582.44;5064994;28;20037;-41
2023/11/03 10:49:33;;;;;;;9.05;1.42;;;;;;;7.68;100.00;97579.63;5057751;28;20129;-45
2023/11/03 10:52:15;;;;;;;4.70;1.15;;;;;;;7.73;100.00;97584.75;5063169;28;20041;-41
2023/11/03 10:55:09;;;;;;;9.60;2.33;;;;;;;7.79;100.00;97589.41;5063786;28;20136;-41
2023/11/03 10:57:37;;;;;;;;;;;;;;;7.84;100.00;97589.00;5062253;28;20061;-42
2023/11/03 11:00:22;;;;;;;7.20;1.83;;;;;;;7.88;100.00;97581.50;5065904;28;19924;-43
2023/11/03 11:02:56;;;;;;;8.18;1.55;;;;;;;7.95;100.00;97594.41;5048088;28;20045;-41
2023/11/03 11:05:31;;;;;;;8.43;1.60;;;;;;;8.02;100.00;97593.59;5062431;28;20036;-42
2023/11/03 11:08:01;;;;;;;3.10;1.58;;;;;;;8.08;100.00;97589.22;5059482;28;20127;-45
2023/11/03 11:10:35;;;;;;;6.85;1.45;;;;;;;8.13;100.00;97591.56;5066650;28;20041;-40
2023/11/03 11:13:04;;;;;;;6.75;1.77;;;;;;;8.16;100.00;97593.47;5062423;28;20437;-44
2023/11/03 11:15:31;;;;;;;5.45;1.00;;;;;;;8.19;100.00;97592.66;5055809;28;20509;-41
2023/11/03 11:18:30;;;;;;;3.80;1.10;;;;;;;8.22;100.00;97591.88;5069698;28;20506;-42
2023/11/03 11:21:06;;;;;;;4.53;1.05;;;;;;;8.26;100.00;97592.63;5045882;28;20072;-41
2023/11/03 11:23:44;;;;;;;6.55;1.23;;;;;;;8.31;100.00;97589.47;5055354;28;20040;-41
2023/11/03 11:26:20;;;;;;;6.05;1.70;;;;;;;8.37;100.00;97593.34;5069200;28;20045;-43
2023/11/03 11:28:49;;;;;;;8.32;1.42;;;;;;;8.42;100.00;97595.66;5068250;28;20037;-42
2023/11/03 11:31:22;;;;;;;9.85;2.35;;;;;;;8.51;100.00;97587.69;5050772;28;20048;-43
2023/11/03 11:34:06;;;;;;;9.80;1.27;;;;;;;8.59;100.00;97586.44;5062788;28;20135;-40